createdAt,value
2018-08-03T00:01:07.329Z,77.20
2018-08-03T00:03:41.664Z,77.60
2018-08-03T00:06:16.667Z,77.60
2018-08-03T00:08:51.598Z,77.60
2018-08-03T00:11:26.196Z,77.30
2018-08-03T00:14:00.550Z,77.00
2018-08-03T00:16:35.719Z,77.00
2018-08-03T00:19:10.037Z,76.40
2018-08-03T00:21:45.262Z,76.60
2018-08-03T00:24:19.735Z,76.20
2018-08-03T00:26:54.464Z,76.30
2018-08-03T00:29:29.490Z,76.10
2018-08-03T00:32:03.903Z,76.50
2018-08-03T00:34:38.513Z,76.70
2018-08-03T00:37:13.311Z,76.40
2018-08-03T00:39:48.066Z,76.20
2018-08-03T00:42:23.359Z,76.40
2018-08-03T00:44:58.129Z,77.30
2018-08-03T00:47:33.170Z,76.30
2018-08-03T00:50:14.251Z,76.30
2018-08-03T00:52:49.285Z,75.20
2018-08-03T00:55:24.175Z,76.00
2018-08-03T00:57:58.992Z,76.80
2018-08-03T01:00:33.998Z,76.40
2018-08-03T01:03:09.272Z,76.10
2018-08-03T01:05:43.528Z,76.50
2018-08-03T01:08:18.213Z,77.00
2018-08-03T01:10:53.083Z,76.30
2018-08-03T01:13:27.713Z,76.40
2018-08-03T01:16:02.624Z,76.80
2018-08-03T01:18:37.142Z,76.80
2018-08-03T01:21:11.828Z,77.00
2018-08-03T01:23:46.673Z,77.00
2018-08-03T01:26:21.422Z,77.10
2018-08-03T01:28:56.236Z,77.30
2018-08-03T01:31:30.677Z,77.50
2018-08-03T01:34:05.812Z,77.60
2018-08-03T01:36:40.073Z,78.70
2018-08-03T01:39:15.207Z,77.80
2018-08-03T01:41:49.561Z,78.90
2018-08-03T01:44:24.303Z,78.40
2018-08-03T01:46:59.440Z,78.90
2018-08-03T01:49:34.011Z,78.80
2018-08-03T01:52:08.901Z,78.70
2018-08-03T01:54:43.655Z,78.90
2018-08-03T01:57:17.944Z,79.00
2018-08-03T01:59:52.693Z,79.20
2018-08-03T02:05:01.960Z,79.70
2018-08-03T02:07:36.899Z,79.60
2018-08-03T02:10:11.705Z,79.90
2018-08-03T02:12:46.461Z,80.00
2018-08-03T02:15:21.537Z,79.90
2018-08-03T02:17:55.824Z,79.60
2018-08-03T02:20:31.619Z,79.80
2018-08-03T02:23:06.613Z,79.70
2018-08-03T02:25:40.992Z,79.70
2018-08-03T02:28:15.898Z,79.90
2018-08-03T02:30:50.666Z,79.90
2018-08-03T02:33:25.374Z,79.90
2018-08-03T02:36:00.493Z,80.30
2018-08-03T02:38:35.415Z,80.30
2018-08-03T02:41:09.914Z,80.20
2018-08-03T02:43:44.529Z,80.30
2018-08-03T02:46:19.145Z,80.40
2018-08-03T02:48:54.074Z,80.60
2018-08-03T02:51:28.841Z,80.90
2018-08-03T02:54:03.738Z,80.80
2018-08-03T02:56:38.532Z,80.80
2018-08-03T02:59:13.567Z,80.80
2018-08-03T03:01:48.020Z,81.00
2018-08-03T03:04:22.668Z,81.90
2018-08-03T03:06:57.337Z,81.40
2018-08-03T03:09:32.494Z,81.40
2018-08-03T03:12:07.073Z,81.40
2018-08-03T03:14:41.639Z,81.70
2018-08-03T03:17:15.913Z,82.00
2018-08-03T03:19:50.085Z,82.20
2018-08-03T03:22:24.757Z,82.20
2018-08-03T03:24:59.600Z,82.20
2018-08-03T03:27:33.953Z,82.50
2018-08-03T03:30:09.065Z,82.60
2018-08-03T03:32:43.161Z,82.60
2018-08-03T03:35:18.268Z,82.90
2018-08-03T03:37:52.901Z,82.90
2018-08-03T03:40:27.225Z,83.00
2018-08-03T03:43:02.313Z,83.10
2018-08-03T03:45:37.257Z,83.10
2018-08-03T03:48:11.796Z,83.30
2018-08-03T03:50:46.400Z,83.30
2018-08-03T03:53:21.145Z,83.40
2018-08-03T03:58:30.542Z,84.40
2018-08-03T04:01:05.416Z,84.40
2018-08-03T04:03:39.924Z,83.70
2018-08-03T04:06:14.644Z,83.70
2018-08-03T04:08:49.642Z,83.70
2018-08-03T04:11:23.760Z,83.80
2018-08-03T04:13:58.551Z,83.80
2018-08-03T04:16:33.764Z,83.80
2018-08-03T04:19:08.098Z,83.70
2018-08-03T04:21:42.396Z,84.00
2018-08-03T04:24:16.986Z,84.00
2018-08-03T04:26:52.783Z,83.80
2018-08-03T04:29:27.676Z,84.10
2018-08-03T04:32:03.265Z,84.10
2018-08-03T04:34:37.391Z,84.00
2018-08-03T04:37:12.314Z,84.00
2018-08-03T04:39:47.018Z,84.10
2018-08-03T04:42:21.747Z,83.70
2018-08-03T04:44:56.459Z,83.30
2018-08-03T04:47:31.106Z,83.50
2018-08-03T04:50:05.954Z,83.70
2018-08-03T04:52:40.921Z,83.70
2018-08-03T04:55:15.620Z,83.20
2018-08-03T04:57:50.373Z,83.90
2018-08-03T05:00:25.057Z,83.80
2018-08-03T05:02:59.827Z,83.40
2018-08-03T05:05:34.619Z,83.30
2018-08-03T05:08:09.098Z,83.30
2018-08-03T05:10:44.296Z,82.80
2018-08-03T05:13:18.653Z,82.60
2018-08-03T05:15:53.258Z,82.80
2018-08-03T05:18:28.085Z,82.50
2018-08-03T05:21:02.723Z,82.10
2018-08-03T05:23:37.733Z,81.70
2018-08-03T05:26:12.093Z,82.00
2018-08-03T05:28:47.009Z,81.50
2018-08-03T05:31:21.922Z,80.70
2018-08-03T05:33:56.072Z,79.60
2018-08-03T05:36:31.075Z,78.40
2018-08-03T05:39:09.494Z,77.30
2018-08-03T05:41:43.915Z,76.00
2018-08-03T05:44:18.804Z,74.20
2018-08-03T05:46:53.552Z,71.90
2018-08-03T05:49:28.390Z,70.50
2018-08-03T05:52:03.380Z,68.50
2018-08-03T05:54:38.118Z,66.80
2018-08-03T05:57:13.246Z,66.00
2018-08-03T05:59:47.541Z,65.10
2018-08-03T06:02:22.344Z,65.60
2018-08-03T06:04:56.839Z,65.60
2018-08-03T06:07:31.781Z,64.30
2018-08-03T06:10:06.279Z,62.50
2018-08-03T06:12:41.283Z,61.70
2018-08-03T06:15:15.732Z,61.40
2018-08-03T06:17:50.557Z,59.80
2018-08-03T06:20:24.926Z,59.50
2018-08-03T06:23:00.085Z,58.20
2018-08-03T06:25:34.773Z,57.20
2018-08-03T06:28:09.951Z,57.20
2018-08-03T06:30:44.330Z,56.70
2018-08-03T06:33:19.215Z,56.30
2018-08-03T06:35:54.453Z,56.40
2018-08-03T06:38:28.753Z,55.60
2018-08-03T06:41:02.918Z,55.20
2018-08-03T06:43:37.045Z,54.50
2018-08-03T06:46:12.101Z,54.50
2018-08-03T06:48:46.333Z,53.40
2018-08-03T06:51:21.177Z,52.90
2018-08-03T06:53:55.919Z,53.00
2018-08-03T06:56:30.133Z,52.90
2018-08-03T06:59:05.238Z,52.00
2018-08-03T07:01:39.759Z,52.00
2018-08-03T07:04:14.526Z,51.30
2018-08-03T07:06:49.258Z,50.90
2018-08-03T07:09:23.928Z,50.80
2018-08-03T07:11:58.839Z,51.20
2018-08-03T07:14:33.386Z,50.80
2018-08-03T07:17:08.349Z,50.20
2018-08-03T07:19:42.987Z,51.30
2018-08-03T07:22:17.570Z,50.00
2018-08-03T07:24:52.408Z,50.40
2018-08-03T07:27:27.205Z,49.60
2018-08-03T07:30:01.930Z,50.40
2018-08-03T07:32:36.692Z,50.20
2018-08-03T07:35:11.674Z,50.50
2018-08-03T07:37:46.113Z,50.70
2018-08-03T07:40:21.052Z,51.10
2018-08-03T07:42:55.607Z,50.90
2018-08-03T07:45:30.915Z,50.10
2018-08-03T07:48:05.292Z,50.60
2018-08-03T07:50:39.988Z,50.20
2018-08-03T07:53:14.771Z,50.60
2018-08-03T07:55:49.376Z,50.20
2018-08-03T07:58:23.567Z,49.20
2018-08-03T08:00:58.644Z,50.00
2018-08-03T08:03:33.176Z,49.10
2018-08-03T08:06:07.655Z,50.00
2018-08-03T08:08:42.437Z,49.80
2018-08-03T08:11:17.359Z,49.20
2018-08-03T08:13:51.889Z,49.90
2018-08-03T08:16:26.572Z,49.00
2018-08-03T08:19:01.482Z,48.60
2018-08-03T08:21:36.596Z,48.10
2018-08-03T08:24:11.562Z,48.50
2018-08-03T08:26:46.114Z,50.20
2018-08-03T08:29:20.879Z,49.00
2018-08-03T08:31:55.820Z,49.40
2018-08-03T08:34:30.006Z,49.00
2018-08-03T08:37:05.565Z,50.00
2018-08-03T08:39:40.543Z,50.60
2018-08-03T08:42:15.236Z,49.30
2018-08-03T08:44:49.723Z,50.10
2018-08-03T08:47:24.919Z,50.10
2018-08-03T08:49:59.251Z,49.50
2018-08-03T08:52:34.417Z,50.30
2018-08-03T08:55:08.838Z,49.50
2018-08-03T08:57:43.601Z,49.10
2018-08-03T09:00:18.699Z,49.60
2018-08-03T09:02:53.109Z,49.50
2018-08-03T09:05:27.256Z,49.30
2018-08-03T09:08:01.508Z,48.80
2018-08-03T09:10:36.436Z,48.20
2018-08-03T09:13:11.485Z,47.40
2018-08-03T09:15:45.503Z,47.90
2018-08-03T09:18:20.357Z,46.20
2018-08-03T09:20:55.501Z,46.20
2018-08-03T09:23:30.491Z,46.70
2018-08-03T09:26:04.828Z,49.10
2018-08-03T09:28:39.673Z,48.60
2018-08-03T09:31:14.444Z,48.10
2018-08-03T09:33:49.725Z,47.80
2018-08-03T09:36:24.437Z,47.50
2018-08-03T09:38:59.339Z,46.60
2018-08-03T09:41:34.136Z,46.50
2018-08-03T09:44:08.863Z,46.50
2018-08-03T09:46:44.538Z,45.50
2018-08-03T09:49:19.286Z,46.30
2018-08-03T09:51:54.333Z,48.30
2018-08-03T09:54:28.556Z,47.30
2018-08-03T09:57:03.146Z,48.30
2018-08-03T09:59:38.143Z,46.30
2018-08-03T10:02:12.424Z,45.90
2018-08-03T10:04:47.176Z,46.40
2018-08-03T10:07:21.549Z,47.60
2018-08-03T10:09:56.202Z,48.30
2018-08-03T10:12:30.971Z,45.90
2018-08-03T10:15:05.890Z,47.20
2018-08-03T10:17:40.903Z,44.90
2018-08-03T10:20:15.764Z,45.30
2018-08-03T10:22:50.721Z,45.80
2018-08-03T10:25:25.820Z,47.30
2018-08-03T10:28:00.456Z,46.40
2018-08-03T10:30:35.489Z,45.40
2018-08-03T10:33:10.341Z,44.50
2018-08-03T10:35:45.357Z,45.80
2018-08-03T10:38:20.122Z,44.70
2018-08-03T10:40:54.831Z,44.90
2018-08-03T10:43:29.547Z,45.30
2018-08-03T10:46:04.189Z,45.10
2018-08-03T10:48:39.319Z,46.50
2018-08-03T10:51:14.282Z,47.10
2018-08-03T10:53:48.567Z,47.40
2018-08-03T10:56:23.316Z,48.20
2018-08-03T10:58:57.720Z,46.60
2018-08-03T11:01:33.508Z,46.90
2018-08-03T11:04:08.223Z,47.60
2018-08-03T11:06:43.215Z,47.30
2018-08-03T11:09:17.776Z,48.10
2018-08-03T11:11:52.357Z,49.10
2018-08-03T11:14:27.088Z,50.30
2018-08-03T11:17:02.051Z,51.50
2018-08-03T11:19:36.340Z,50.90
2018-08-03T11:22:11.054Z,51.00
2018-08-03T11:24:46.086Z,51.30
2018-08-03T11:27:20.953Z,52.00
2018-08-03T11:29:55.250Z,52.60
2018-08-03T11:32:29.839Z,51.60
2018-08-03T11:35:04.599Z,51.60
2018-08-03T11:37:38.997Z,50.70
2018-08-03T11:40:13.595Z,50.70
2018-08-03T11:42:47.910Z,49.90
2018-08-03T11:45:22.988Z,51.10
2018-08-03T11:47:57.666Z,51.80
2018-08-03T11:50:32.589Z,53.30
2018-08-03T11:53:07.087Z,54.30
2018-08-03T11:55:41.821Z,52.40
2018-08-03T11:58:16.511Z,53.40
2018-08-03T12:00:51.451Z,52.90
2018-08-03T12:03:25.607Z,54.20
2018-08-03T12:06:00.306Z,53.20
2018-08-03T12:08:34.816Z,52.00
2018-08-03T12:11:09.657Z,51.20
2018-08-03T12:13:44.332Z,52.40
2018-08-03T12:16:19.292Z,52.60
2018-08-03T12:18:53.890Z,52.70
2018-08-03T12:21:28.735Z,51.60
2018-08-03T12:24:03.941Z,51.50
2018-08-03T12:26:38.394Z,50.40
2018-08-03T12:29:13.086Z,51.50
2018-08-03T12:31:48.435Z,52.80
2018-08-03T12:34:22.997Z,51.30
2018-08-03T12:36:57.384Z,51.50
2018-08-03T12:39:32.280Z,51.10
2018-08-03T12:42:07.536Z,51.20
2018-08-03T12:44:42.007Z,50.50
2018-08-03T12:47:16.941Z,50.40
2018-08-03T12:49:51.443Z,49.30
2018-08-03T12:52:25.793Z,48.40
2018-08-03T12:55:00.711Z,48.70
2018-08-03T12:57:35.565Z,50.60
2018-08-03T13:00:10.258Z,51.00
2018-08-03T13:02:44.962Z,51.50
2018-08-03T13:05:19.625Z,51.90
2018-08-03T13:07:54.910Z,51.60
2018-08-03T13:10:29.095Z,51.90
2018-08-03T13:13:03.944Z,52.30
2018-08-03T13:15:38.619Z,52.30
2018-08-03T13:18:13.387Z,53.00
2018-08-03T13:20:48.034Z,51.60
2018-08-03T13:23:22.656Z,51.30
2018-08-03T13:25:57.360Z,51.50
2018-08-03T13:28:32.658Z,51.30
2018-08-03T13:31:07.329Z,51.60
2018-08-03T13:33:41.942Z,51.20
2018-08-03T13:36:16.688Z,51.90
2018-08-03T13:38:51.321Z,52.40
2018-08-03T13:41:25.929Z,51.40
2018-08-03T13:44:00.661Z,50.90
2018-08-03T13:46:35.408Z,50.00
2018-08-03T13:49:10.188Z,49.90
2018-08-03T13:51:45.068Z,50.40
2018-08-03T13:54:20.454Z,48.70
2018-08-03T13:56:55.490Z,49.60
2018-08-03T13:59:31.081Z,48.40
2018-08-03T14:02:19.475Z,49.00
2018-08-03T14:04:55.304Z,47.30
2018-08-03T14:07:30.225Z,48.40
2018-08-03T14:12:40.889Z,49.60
2018-08-03T14:15:15.625Z,49.10
2018-08-03T14:17:50.228Z,49.20
2018-08-03T14:20:24.855Z,47.50
2018-08-03T14:22:59.505Z,48.20
2018-08-03T14:25:34.370Z,48.70
2018-08-03T14:28:09.107Z,48.70
2018-08-03T14:30:43.819Z,49.60
2018-08-03T14:33:18.880Z,50.30
2018-08-03T14:35:53.525Z,50.50
2018-08-03T14:38:28.046Z,50.70
2018-08-03T14:41:02.699Z,50.10
2018-08-03T14:43:37.492Z,49.80
2018-08-03T14:46:12.435Z,49.40
2018-08-03T14:48:46.995Z,49.60
2018-08-03T14:51:21.674Z,50.00
2018-08-03T14:53:56.129Z,50.00
2018-08-03T14:56:30.985Z,50.30
2018-08-03T14:59:05.845Z,50.50
2018-08-03T15:01:40.697Z,49.20
2018-08-03T15:04:15.760Z,48.40
2018-08-03T15:06:50.725Z,48.10
2018-08-03T15:09:25.487Z,48.50
2018-08-03T15:12:00.375Z,48.50
2018-08-03T15:14:35.281Z,49.20
2018-08-03T15:17:10.175Z,49.50
2018-08-03T15:19:44.500Z,49.90
2018-08-03T15:22:19.157Z,50.30
2018-08-03T15:24:54.059Z,49.60
2018-08-03T15:27:28.759Z,50.00
2018-08-03T15:30:04.466Z,49.90
2018-08-03T15:32:39.460Z,49.80
2018-08-03T15:35:14.568Z,49.50
2018-08-03T15:37:49.241Z,47.60
2018-08-03T15:40:23.840Z,45.80
2018-08-03T15:42:58.553Z,45.40
2018-08-03T15:45:33.207Z,44.80
2018-08-03T15:48:08.127Z,44.00
2018-08-03T15:50:42.650Z,45.20
2018-08-03T15:53:17.445Z,45.40
2018-08-03T15:55:52.130Z,46.20
2018-08-03T15:58:27.845Z,45.50
2018-08-03T16:01:02.595Z,45.90
2018-08-03T16:03:37.391Z,46.10
2018-08-03T16:06:12.104Z,45.80
2018-08-03T16:08:47.394Z,46.40
2018-08-03T16:11:21.810Z,47.40
2018-08-03T16:13:56.740Z,47.00
2018-08-03T16:16:31.424Z,47.90
2018-08-03T16:19:07.214Z,48.20
2018-08-03T16:21:41.403Z,48.10
2018-08-03T16:24:16.110Z,47.50
2018-08-03T16:26:50.855Z,47.00
2018-08-03T16:29:25.023Z,47.80
2018-08-03T16:31:59.835Z,47.40
2018-08-03T16:34:35.094Z,48.10
2018-08-03T16:37:09.350Z,47.40
2018-08-03T16:39:44.066Z,48.00
2018-08-03T16:42:18.632Z,47.60
2018-08-03T16:44:53.349Z,47.40
2018-08-03T16:47:27.928Z,47.30
2018-08-03T16:50:02.744Z,46.90
2018-08-03T16:52:37.426Z,47.00
2018-08-03T16:55:11.903Z,46.80
2018-08-03T16:57:46.805Z,47.10
2018-08-03T17:00:21.489Z,47.50
2018-08-03T17:02:56.032Z,47.40
2018-08-03T17:05:30.760Z,47.40
2018-08-03T17:08:05.633Z,47.60
2018-08-03T17:10:40.695Z,47.70
2018-08-03T17:13:15.188Z,47.80
2018-08-03T17:15:49.883Z,48.10
2018-08-03T17:18:25.017Z,48.40
2018-08-03T17:20:59.358Z,48.40
2018-08-03T17:23:34.028Z,48.20
2018-08-03T17:26:08.261Z,48.40
2018-08-03T17:28:43.724Z,48.50
2018-08-03T17:31:18.983Z,48.20
2018-08-03T17:33:53.789Z,48.60
2018-08-03T17:36:28.941Z,48.20
2018-08-03T17:39:06.661Z,48.30
2018-08-03T17:41:41.233Z,48.60
2018-08-03T17:44:15.842Z,48.60
2018-08-03T17:46:50.859Z,48.70
2018-08-03T17:49:25.885Z,49.30
2018-08-03T17:52:01.037Z,48.50
2018-08-03T17:54:35.771Z,48.70
2018-08-03T17:57:10.583Z,48.70
2018-08-03T17:59:45.390Z,49.30
2018-08-03T18:02:20.206Z,49.10
2018-08-03T18:04:54.686Z,49.10
2018-08-03T18:07:29.406Z,49.20
2018-08-03T18:10:04.847Z,48.80
2018-08-03T18:12:38.984Z,49.60
2018-08-03T18:15:13.748Z,49.90
2018-08-03T18:17:48.489Z,50.00
2018-08-03T18:20:23.493Z,50.30
2018-08-03T18:22:58.279Z,50.40
2018-08-03T18:25:33.603Z,50.80
2018-08-03T18:28:08.347Z,50.80
2018-08-03T18:30:43.264Z,51.20
2018-08-03T18:33:17.808Z,51.40
2018-08-03T18:35:52.521Z,51.70
2018-08-03T18:41:03.044Z,52.00
2018-08-03T18:43:38.173Z,52.30
2018-08-03T18:46:13.162Z,52.50
2018-08-03T18:48:48.302Z,52.60
2018-08-03T18:51:22.603Z,52.80
2018-08-03T18:53:57.050Z,53.20
2018-08-03T18:56:31.530Z,53.40
2018-08-03T18:59:07.122Z,54.70
2018-08-03T19:01:42.109Z,53.90
2018-08-03T19:04:16.729Z,54.90
2018-08-03T19:06:51.671Z,54.80
2018-08-03T19:09:26.126Z,55.70
2018-08-03T19:12:00.914Z,56.30
2018-08-03T19:14:35.782Z,56.70
2018-08-03T19:17:10.555Z,57.20
2018-08-03T19:19:45.208Z,57.50
2018-08-03T19:22:19.925Z,58.10
2018-08-03T19:24:54.865Z,58.60
2018-08-03T19:27:29.238Z,59.00
2018-08-03T19:30:05.019Z,59.40
2018-08-03T19:32:39.810Z,59.80
2018-08-03T19:35:14.269Z,60.20
2018-08-03T19:37:48.947Z,60.60
2018-08-03T19:40:23.784Z,60.90
2018-08-03T19:42:58.475Z,60.20
2018-08-03T19:45:33.300Z,61.00
2018-08-03T19:48:08.210Z,61.50
2018-08-03T19:50:43.198Z,61.80
2018-08-03T19:53:18.191Z,62.10
2018-08-03T19:55:53.309Z,62.30
2018-08-03T19:58:28.173Z,62.30
2018-08-03T20:01:02.956Z,63.30
2018-08-03T20:03:37.962Z,63.50
2018-08-03T20:06:13.080Z,63.60
2018-08-03T20:08:47.534Z,63.60
2018-08-03T20:11:22.541Z,64.10
2018-08-03T20:13:57.031Z,64.40
2018-08-03T20:16:32.491Z,64.70
2018-08-03T20:19:10.223Z,65.10
2018-08-03T20:21:45.190Z,65.30
2018-08-03T20:24:19.785Z,65.40
2018-08-03T20:26:54.717Z,65.70
2018-08-03T20:29:29.266Z,65.70
2018-08-03T20:32:05.033Z,65.90
2018-08-03T20:34:39.754Z,66.50
2018-08-03T20:37:14.476Z,66.70
2018-08-03T20:39:49.211Z,66.80
2018-08-03T20:42:24.427Z,67.10
2018-08-03T20:44:58.889Z,67.10
2018-08-03T20:47:33.651Z,67.50
2018-08-03T20:50:08.476Z,67.80
2018-08-03T20:52:43.336Z,67.90
2018-08-03T20:55:18.032Z,67.80
2018-08-03T20:57:52.698Z,68.00
2018-08-03T21:00:27.712Z,68.30
2018-08-03T21:03:02.634Z,68.40
2018-08-03T21:05:37.379Z,68.60
2018-08-03T21:08:12.115Z,68.60
2018-08-03T21:10:46.757Z,68.80
2018-08-03T21:13:21.735Z,69.10
2018-08-03T21:15:56.608Z,68.80
2018-08-03T21:18:31.300Z,69.00
2018-08-03T21:21:05.944Z,69.30
2018-08-03T21:23:40.624Z,69.60
2018-08-03T21:26:15.174Z,70.00
2018-08-03T21:28:50.170Z,70.20
2018-08-03T21:31:24.721Z,70.50
2018-08-03T21:33:59.796Z,69.80
2018-08-03T21:36:34.019Z,70.10
2018-08-03T21:39:10.582Z,70.10
2018-08-03T21:41:45.420Z,70.30
2018-08-03T21:44:20.139Z,70.40
2018-08-03T21:46:54.875Z,71.00
2018-08-03T21:52:04.137Z,71.50
2018-08-03T21:54:38.866Z,71.60
2018-08-03T21:57:13.466Z,71.70
2018-08-03T21:59:48.084Z,71.90
2018-08-03T22:02:23.210Z,72.20
2018-08-03T22:04:57.583Z,72.10
2018-08-03T22:07:32.391Z,72.40
2018-08-03T22:10:08.104Z,72.50
2018-08-03T22:12:42.973Z,72.70
2018-08-03T22:15:17.368Z,72.90
2018-08-03T22:17:51.958Z,73.10
2018-08-03T22:20:27.128Z,73.30
2018-08-03T22:23:01.761Z,73.30
2018-08-03T22:25:36.233Z,73.50
2018-08-03T22:28:11.200Z,73.60
2018-08-03T22:30:45.504Z,73.70
2018-08-03T22:33:20.240Z,73.60
2018-08-03T22:35:54.969Z,73.60
2018-08-03T22:38:29.549Z,73.60
2018-08-03T22:41:04.380Z,73.60
2018-08-03T22:43:38.846Z,73.70
2018-08-03T22:46:13.621Z,74.20
2018-08-03T22:48:48.299Z,74.40
2018-08-03T22:51:23.623Z,74.30
2018-08-03T22:53:58.706Z,74.50
2018-08-03T22:56:33.424Z,74.60
2018-08-03T22:59:08.210Z,74.70
2018-08-03T23:01:42.946Z,74.70
2018-08-03T23:04:17.251Z,74.90
2018-08-03T23:06:52.380Z,75.30
2018-08-03T23:12:02.072Z,75.40
2018-08-03T23:14:37.177Z,75.30
2018-08-03T23:17:11.873Z,75.30
2018-08-03T23:19:46.712Z,75.40
2018-08-03T23:22:21.829Z,75.70
2018-08-03T23:24:56.931Z,75.90
2018-08-03T23:27:31.358Z,76.10
2018-08-03T23:30:07.747Z,76.30
2018-08-03T23:32:42.567Z,76.10
2018-08-03T23:35:17.672Z,76.40
2018-08-03T23:37:52.854Z,76.60
2018-08-03T23:40:28.025Z,76.50
2018-08-03T23:43:02.673Z,76.80
2018-08-03T23:45:37.413Z,76.80
2018-08-03T23:48:12.459Z,76.90
2018-08-03T23:50:46.907Z,77.30
2018-08-03T23:53:21.797Z,77.20
2018-08-03T23:55:56.282Z,77.40
2018-08-03T23:58:31.091Z,77.50
